Findlay Airport
KFDY : now visible

Airfield :











YOU CAN JOIN US ON...

 
LOGIN :

Register | Disclaimer

   EN    FR    IT 

 









Legend :    VFR   Marginal VFR   IFR   Intensive IFR   Very Intensive IFR
Visi :
Ceiling :
>= 8 km
>= 3000ft
5 to 8 km
1000 to 3000 ft
1500m to 5 km
500 to 1000 ft
800 to 1500m
200 to 500 ft
< 800m
< 200 ft
Symbols :   Thunderstorms  Fog  Heavy snow  Heavy precipitations  Wind > 20 kt






- Airport Elevation : 813 ft


KFDY - Findlay

CURRENT METAR :
  • 270553Z AUTO 36008KT 10SM OVC011 M01/M03 A3010 RMK AO2 SLP196 I6001 T10111033 10006 21011 53033

EXPIRED METARs :
  • 270536Z AUTO 36010KT 10SM OVC011 M01/M04 A3009 RMK AO2 T10111039
  • 270503Z AUTO 35013KT 10SM OVC009 M01/M03 A3007 RMK AO2 T10111033
  • 270453Z AUTO 34010KT 10SM OVC010 M01/M03 A3006 RMK AO2 SLP185 I1000 T10111033 400221011
  • 270353Z AUTO 36011KT 10SM OVC011 00/M03 A3003 RMK AO2 SLP173 T00001028
  • 270316Z AUTO 33011KT 10SM BKN010 BKN019 OVC024 00/M02 A3001 RMK AO2 T00001022

TAF KFDY
Valid from the 27 at 06:00 until the 28 at 06:00 UTC


270525Z 2706/2806 36012KT P6SM OVC009
FM270800 36009KT P6SM BKN015
FM271100 36008KT P6SM SCT025
FM280500 36007KT P6SM SCT070
KZOB FIR / North America



MET'MAP, your aeronautical weather chart ! - Copyright ORBIFLY December 2007 - Disclaimer

ORBIFLY MET'MAP TEAM :

Programming & Development : Alexandra Zaïnal
Concept & original design : Baudouin d'Aumeries
Assistance for programming : Marc-Olivier Méhu
Technical & hardware support : Manuel Goepfert

Contact : metmap@orbifly.com




SOURCES & CREDITS :

   NOAA       Earth
Advisory